sensor_id;sensor_type;location;lat;lon;timestamp;pressure;altitude;pressure_sealevel;temperature;humidity
57801;BME280;43627;42.728;23.256;2023-03-14T00:01:10;95205.47;;;1.41;100.00
57801;BME280;43627;42.728;23.256;2023-03-14T00:03:37;95196.72;;;1.34;100.00
57801;BME280;43627;42.728;23.256;2023-03-14T00:06:05;95197.44;;;1.38;100.00
57801;BME280;43627;42.728;23.256;2023-03-14T00:08:32;95205.44;;;1.45;100.00
57801;BME280;43627;42.728;23.256;2023-03-14T00:11:04;95205.09;;;1.39;100.00
57801;BME280;43627;42.728;23.256;2023-03-14T00:13:31;95201.25;;;1.40;100.00
57801;BME280;43627;42.728;23.256;2023-03-14T00:16:05;95196.69;;;1.37;100.00
57801;BME280;43627;42.728;23.256;2023-03-14T00:18:32;95184.13;;;1.24;97.30
57801;BME280;43627;42.728;23.256;2023-03-14T00:21:00;95192.88;;;1.31;88.28
57801;BME280;43627;42.728;23.256;2023-03-14T00:23:29;95184.81;;;1.31;90.70
57801;BME280;43627;42.728;23.256;2023-03-14T00:26:03;95190.19;;;1.31;94.33
57801;BME280;43627;42.728;23.256;2023-03-14T00:28:30;95172.53;;;1.34;100.00
57801;BME280;43627;42.728;23.256;2023-03-14T00:30:57;95179.09;;;1.29;97.28
57801;BME280;43627;42.728;23.256;2023-03-14T00:33:24;95178.75;;;1.24;97.39
57801;BME280;43627;42.728;23.256;2023-03-14T00:35:56;95177.22;;;1.23;99.09
57801;BME280;43627;42.728;23.256;2023-03-14T00:38:23;95172.22;;;1.25;100.00
57801;BME280;43627;42.728;23.256;2023-03-14T00:40:51;95160.38;;;1.19;100.00
57801;BME280;43627;42.728;23.256;2023-03-14T00:43:19;95163.47;;;1.13;100.00
57801;BME280;43627;42.728;23.256;2023-03-14T00:45:50;95096.41;;;0.54;100.00
57801;BME280;43627;42.728;23.256;2023-03-14T00:48:19;95166.28;;;0.99;98.87
57801;BME280;43627;42.728;23.256;2023-03-14T00:50:46;95149.09;;;0.90;100.00
57801;BME280;43627;42.728;23.256;2023-03-14T00:53:13;95157.63;;;0.74;98.85
57801;BME280;43627;42.728;23.256;2023-03-14T00:55:40;95158.38;;;0.74;100.00
57801;BME280;43627;42.728;23.256;2023-03-14T00:58:10;95158.09;;;0.62;100.00
57801;BME280;43627;42.728;23.256;2023-03-14T01:00:37;95156.88;;;0.66;100.00
57801;BME280;43627;42.728;23.256;2023-03-14T01:03:05;95157.28;;;0.68;100.00
57801;BME280;43627;42.728;23.256;2023-03-14T01:05:32;95144.69;;;0.58;99.49
57801;BME280;43627;42.728;23.256;2023-03-14T01:07:59;95150.09;;;0.47;99.28
57801;BME280;43627;42.728;23.256;2023-03-14T01:10:26;95149.72;;;0.49;99.87
57801;BME280;43627;42.728;23.256;2023-03-14T01:12:53;95139.41;;;0.44;100.00
57801;BME280;43627;42.728;23.256;2023-03-14T01:15:20;95144.38;;;0.45;100.00
57801;BME280;43627;42.728;23.256;2023-03-14T01:17:47;95139.75;;;0.46;100.00
57801;BME280;43627;42.728;23.256;2023-03-14T01:20:14;95130.25;;;0.34;100.00
57801;BME280;43627;42.728;23.256;2023-03-14T01:22:42;95121.84;;;0.32;100.00
57801;BME280;43627;42.728;23.256;2023-03-14T01:25:15;95123.72;;;0.39;100.00
57801;BME280;43627;42.728;23.256;2023-03-14T01:27:42;95118.38;;;0.39;100.00
57801;BME280;43627;42.728;23.256;2023-03-14T01:30:09;95128.31;;;0.42;100.00
57801;BME280;43627;42.728;23.256;2023-03-14T01:32:37;95110.31;;;0.35;99.65
57801;BME280;43627;42.728;23.256;2023-03-14T01:35:04;95098.53;;;0.18;99.13
57801;BME280;43627;42.728;23.256;2023-03-14T01:37:31;95121.84;;;0.32;99.13
57801;BME280;43627;42.728;23.256;2023-03-14T01:39:58;95113.03;;;0.32;100.00
57801;BME280;43627;42.728;23.256;2023-03-14T01:42:24;95120.28;;;0.35;99.54
57801;BME280;43627;42.728;23.256;2023-03-14T01:47:22;95111.16;;;0.28;100.00
57801;BME280;43627;42.728;23.256;2023-03-14T01:52:29;95101.50;;;0.35;98.32
57801;BME280;43627;42.728;23.256;2023-03-14T01:55:05;95095.44;;;0.23;98.26
57801;BME280;43627;42.728;23.256;2023-03-14T01:57:37;95101.91;;;0.33;100.00
57801;BME280;43627;42.728;23.256;2023-03-14T02:00:08;95086.56;;;0.34;100.00
57801;BME280;43627;42.728;23.256;2023-03-14T02:03:01;95086.66;;;0.23;100.00
57801;BME280;43627;42.728;23.256;2023-03-14T02:05:29;95082.00;;;0.27;100.00
57801;BME280;43627;42.728;23.256;2023-03-14T02:08:00;95097.34;;;0.30;100.00
57801;BME280;43627;42.728;23.256;2023-03-14T02:10:33;95080.13;;;0.24;100.00
57801;BME280;43627;42.728;23.256;2023-03-14T02:13:03;95095.41;;;0.27;100.00
57801;BME280;43627;42.728;23.256;2023-03-14T02:15:30;95080.16;;;0.17;100.00
57801;BME280;43627;42.728;23.256;2023-03-14T02:17:57;95097.75;;;0.18;100.00
57801;BME280;43627;42.728;23.256;2023-03-14T02:20:33;95092.00;;;0.23;100.00
57801;BME280;43627;42.728;23.256;2023-03-14T02:23:02;95085.13;;;0.22;99.34
57801;BME280;43627;42.728;23.256;2023-03-14T02:25:47;95084.69;;;0.27;100.00
57801;BME280;43627;42.728;23.256;2023-03-14T02:28:15;95085.13;;;0.22;100.00
57801;BME280;43627;42.728;23.256;2023-03-14T02:30:43;95095.84;;;0.22;100.00
57801;BME280;43627;42.728;23.256;2023-03-14T02:33:13;95090.91;;;0.13;99.69
57801;BME280;43627;42.728;23.256;2023-03-14T02:36:01;95088.66;;;0.05;100.00
57801;BME280;43627;42.728;23.256;2023-03-14T02:38:29;95092.53;;;-0.07;100.00
57801;BME280;43627;42.728;23.256;2023-03-14T02:40:57;95098.31;;;-0.16;100.00
57801;BME280;43627;42.728;23.256;2023-03-14T02:43:24;95098.75;;;-0.32;100.00
57801;BME280;43627;42.728;23.256;2023-03-14T02:45:51;95092.31;;;-0.52;100.00
57801;BME280;43627;42.728;23.256;2023-03-14T02:48:24;95093.47;;;-0.56;100.00
57801;BME280;43627;42.728;23.256;2023-03-14T02:50:55;95091.56;;;-0.60;100.00
57801;BME280;43627;42.728;23.256;2023-03-14T02:53:28;95095.41;;;-0.64;100.00
57801;BME280;43627;42.728;23.256;2023-03-14T02:55:55;95101.88;;;-0.58;100.00
57801;BME280;43627;42.728;23.256;2023-03-14T02:58:22;95103.41;;;-0.61;100.00
57801;BME280;43627;42.728;23.256;2023-03-14T03:00:49;95095.00;;;-0.63;100.00
57801;BME280;43627;42.728;23.256;2023-03-14T03:03:16;95077.00;;;-0.59;100.00
57801;BME280;43627;42.728;23.256;2023-03-14T03:05:42;95099.97;;;-0.47;100.00
57801;BME280;43627;42.728;23.256;2023-03-14T03:08:10;95081.56;;;-0.48;100.00
57801;BME280;43627;42.728;23.256;2023-03-14T03:10:37;95103.41;;;-0.46;100.00
57801;BME280;43627;42.728;23.256;2023-03-14T03:13:03;95103.41;;;-0.46;100.00
57801;BME280;43627;42.728;23.256;2023-03-14T03:15:30;95107.56;;;-0.35;100.00
57801;BME280;43627;42.728;23.256;2023-03-14T03:17:57;95089.94;;;-0.32;100.00
57801;BME280;43627;42.728;23.256;2023-03-14T03:20:24;95096.41;;;-0.22;100.00
57801;BME280;43627;42.728;23.256;2023-03-14T03:22:50;95097.97;;;-0.25;100.00
57801;BME280;43627;42.728;23.256;2023-03-14T03:25:17;95094.50;;;-0.22;100.00
57801;BME280;43627;42.728;23.256;2023-03-14T03:27:44;95091.84;;;-0.25;100.00
57801;BME280;43627;42.728;23.256;2023-03-14T03:30:11;95094.91;;;-0.23;100.00
57801;BME280;43627;42.728;23.256;2023-03-14T03:32:38;95094.16;;;-0.27;100.00
57801;BME280;43627;42.728;23.256;2023-03-14T03:35:05;95089.19;;;-0.33;100.00
57801;BME280;43627;42.728;23.256;2023-03-14T03:37:32;95094.53;;;-0.29;100.00
57801;BME280;43627;42.728;23.256;2023-03-14T03:39:59;95095.69;;;-0.34;100.00
57801;BME280;43627;42.728;23.256;2023-03-14T03:42:27;95106.03;;;-0.32;100.00
57801;BME280;43627;42.728;23.256;2023-03-14T03:44:54;95101.44;;;-0.35;100.00
57801;BME280;43627;42.728;23.256;2023-03-14T03:47:20;95102.59;;;-0.36;100.00
57801;BME280;43627;42.728;23.256;2023-03-14T03:49:47;95095.72;;;-0.37;100.00
57801;BME280;43627;42.728;23.256;2023-03-14T03:52:14;95094.94;;;-0.41;100.00
57801;BME280;43627;42.728;23.256;2023-03-14T03:54:40;95082.75;;;-0.56;100.00
57801;BME280;43627;42.728;23.256;2023-03-14T03:57:07;95095.38;;;-0.46;100.00
57801;BME280;43627;42.728;23.256;2023-03-14T03:59:34;95092.28;;;-0.48;100.00
57801;BME280;43627;42.728;23.256;2023-03-14T04:02:00;95103.38;;;-0.50;100.00
57801;BME280;43627;42.728;23.256;2023-03-14T04:04:27;95106.88;;;-0.64;100.00
57801;BME280;43627;42.728;23.256;2023-03-14T04:06:54;95103.47;;;-0.75;100.00
57801;BME280;43627;42.728;23.256;2023-03-14T04:09:21;95096.56;;;-0.79;100.00
57801;BME280;43627;42.728;23.256;2023-03-14T04:11:47;95103.81;;;-0.69;100.00
57801;BME280;43627;42.728;23.256;2023-03-14T04:14:14;95098.09;;;-0.71;100.00
57801;BME280;43627;42.728;23.256;2023-03-14T04:16:41;95092.34;;;-0.70;100.00
57801;BME280;43627;42.728;23.256;2023-03-14T04:19:07;95077.03;;;-0.66;100.00
57801;BME280;43627;42.728;23.256;2023-03-14T04:21:34;95097.28;;;-0.58;100.00
57801;BME280;43627;42.728;23.256;2023-03-14T04:24:01;95077.78;;;-0.62;100.00
57801;BME280;43627;42.728;23.256;2023-03-14T04:26:27;95083.50;;;-0.52;100.00
57801;BME280;43627;42.728;23.256;2023-03-14T04:28:54;95067.41;;;-0.49;100.00
57801;BME280;43627;42.728;23.256;2023-03-14T04:31:21;95055.56;;;-0.44;100.00
57801;BME280;43627;42.728;23.256;2023-03-14T04:33:48;95063.53;;;-0.34;100.00
57801;BME280;43627;42.728;23.256;2023-03-14T04:36:15;95067.38;;;-0.27;100.00
57801;BME280;43627;42.728;23.256;2023-03-14T04:38:41;95057.34;;;-0.20;100.00
57801;BME280;43627;42.728;23.256;2023-03-14T04:41:08;95056.53;;;-0.06;100.00
57801;BME280;43627;42.728;23.256;2023-03-14T04:43:35;95042.41;;;-0.14;100.00
57801;BME280;43627;42.728;23.256;2023-03-14T04:46:01;95058.47;;;-0.07;100.00
57801;BME280;43627;42.728;23.256;2023-03-14T04:48:28;95058.84;;;-0.08;100.00
57801;BME280;43627;42.728;23.256;2023-03-14T04:50:55;95055.38;;;-0.05;100.00
57801;BME280;43627;42.728;23.256;2023-03-14T04:53:22;95062.69;;;-0.13;100.00
57801;BME280;43627;42.728;23.256;2023-03-14T04:55:53;95051.63;;;-0.22;100.00
57801;BME280;43627;42.728;23.256;2023-03-14T04:58:21;95060.78;;;-0.12;100.00
57801;BME280;43627;42.728;23.256;2023-03-14T05:00:48;95053.09;;;-0.07;100.00
57801;BME280;43627;42.728;23.256;2023-03-14T05:03:16;95048.06;;;0.03;100.00
57801;BME280;43627;42.728;23.256;2023-03-14T05:05:43;95046.16;;;0.03;100.00
57801;BME280;43627;42.728;23.256;2023-03-14T05:08:10;95054.50;;;0.16;100.00
57801;BME280;43627;42.728;23.256;2023-03-14T05:10:37;95036.06;;;0.25;100.00
57801;BME280;43627;42.728;23.256;2023-03-14T05:13:04;95048.75;;;0.21;99.53
57801;BME280;43627;42.728;23.256;2023-03-14T05:15:30;95044.91;;;0.22;96.89
57801;BME280;43627;42.728;23.256;2023-03-14T05:17:57;95056.22;;;0.47;100.00
57801;BME280;43627;42.728;23.256;2023-03-14T05:20:23;95039.28;;;0.57;100.00
57801;BME280;43627;42.728;23.256;2023-03-14T05:22:50;95041.50;;;0.70;100.00
57801;BME280;43627;42.728;23.256;2023-03-14T05:25:17;95049.16;;;0.71;94.72
57801;BME280;43627;42.728;23.256;2023-03-14T05:27:43;95045.97;;;0.83;90.94
57801;BME280;43627;42.728;23.256;2023-03-14T05:30:10;95039.78;;;0.90;87.85
57801;BME280;43627;42.728;23.256;2023-03-14T05:32:37;95038.25;;;1.30;85.53
57801;BME280;43627;42.728;23.256;2023-03-14T05:35:04;95053.13;;;2.34;80.19
57801;BME280;43627;42.728;23.256;2023-03-14T05:37:31;95040.41;;;3.31;69.61
57801;BME280;43627;42.728;23.256;2023-03-14T05:39:57;95048.75;;;4.16;63.21
57801;BME280;43627;42.728;23.256;2023-03-14T05:42:24;95043.94;;;4.93;58.24
57801;BME280;43627;42.728;23.256;2023-03-14T05:44:51;95034.47;;;5.33;59.37
57801;BME280;43627;42.728;23.256;2023-03-14T05:47:17;95038.16;;;5.68;55.17
57801;BME280;43627;42.728;23.256;2023-03-14T05:49:44;95035.22;;;5.92;53.48
57801;BME280;43627;42.728;23.256;2023-03-14T05:52:11;95047.31;;;6.16;51.95
57801;BME280;43627;42.728;23.256;2023-03-14T05:54:37;95042.88;;;6.22;51.04
57801;BME280;43627;42.728;23.256;2023-03-14T05:57:04;95042.72;;;5.71;51.89
57801;BME280;43627;42.728;23.256;2023-03-14T05:59:31;95049.19;;;5.90;51.56
57801;BME280;43627;42.728;23.256;2023-03-14T06:01:58;95040.59;;;5.50;52.52
57801;BME280;43627;42.728;23.256;2023-03-14T06:04:25;95032.38;;;5.25;53.46
57801;BME280;43627;42.728;23.256;2023-03-14T06:06:51;95041.09;;;5.00;57.31
57801;BME280;43627;42.728;23.256;2023-03-14T06:09:18;95045.81;;;4.47;56.53
57801;BME280;43627;42.728;23.256;2023-03-14T06:11:46;95040.50;;;3.87;58.55
57801;BME280;43627;42.728;23.256;2023-03-14T06:14:13;95035.47;;;3.89;59.51
57801;BME280;43627;42.728;23.256;2023-03-14T06:16:39;95035.66;;;3.79;60.75
57801;BME280;43627;42.728;23.256;2023-03-14T06:19:06;95044.31;;;3.70;60.10
57801;BME280;43627;42.728;23.256;2023-03-14T06:21:33;95044.03;;;3.64;63.34
57801;BME280;43627;42.728;23.256;2023-03-14T06:24:00;95047.56;;;3.81;61.47
57801;BME280;43627;42.728;23.256;2023-03-14T06:26:26;95053.22;;;3.87;60.33
57801;BME280;43627;42.728;23.256;2023-03-14T06:28:53;95048.41;;;4.14;59.15
57801;BME280;43627;42.728;23.256;2023-03-14T06:31:20;95032.34;;;4.27;60.43
57801;BME280;43627;42.728;23.256;2023-03-14T06:33:47;95040.03;;;4.45;58.33
57801;BME280;43627;42.728;23.256;2023-03-14T06:36:14;95049.25;;;4.64;59.05
57801;BME280;43627;42.728;23.256;2023-03-14T06:38:40;95037.31;;;4.65;57.31
57801;BME280;43627;42.728;23.256;2023-03-14T06:41:07;95034.00;;;5.06;59.21
57801;BME280;43627;42.728;23.256;2023-03-14T06:43:34;95044.03;;;4.89;54.84
57801;BME280;43627;42.728;23.256;2023-03-14T06:46:01;95038.38;;;5.16;56.13
57801;BME280;43627;42.728;23.256;2023-03-14T06:48:27;95026.28;;;5.21;56.12
57801;BME280;43627;42.728;23.256;2023-03-14T06:50:54;95025.25;;;5.31;54.39
57801;BME280;43627;42.728;23.256;2023-03-14T06:53:21;95020.13;;;5.49;56.52
57801;BME280;43627;42.728;23.256;2023-03-14T06:55:48;95018.06;;;5.40;54.93
57801;BME280;43627;42.728;23.256;2023-03-14T06:58:14;95018.00;;;5.11;53.98
57801;BME280;43627;42.728;23.256;2023-03-14T07:00:41;95003.28;;;5.29;54.23
57801;BME280;43627;42.728;23.256;2023-03-14T07:03:09;95005.50;;;5.18;54.90
57801;BME280;43627;42.728;23.256;2023-03-14T07:05:38;95009.25;;;5.07;57.17
57801;BME280;43627;42.728;23.256;2023-03-14T07:08:09;95005.56;;;5.30;54.06
57801;BME280;43627;42.728;23.256;2023-03-14T07:10:36;95010.09;;;5.50;53.15
57801;BME280;43627;42.728;23.256;2023-03-14T07:13:02;95018.56;;;5.35;54.55
57801;BME280;43627;42.728;23.256;2023-03-14T07:15:29;95018.44;;;5.55;54.07
57801;BME280;43627;42.728;23.256;2023-03-14T07:17:56;95020.78;;;5.82;54.86
57801;BME280;43627;42.728;23.256;2023-03-14T07:20:22;95014.63;;;5.82;53.78
57801;BME280;43627;42.728;23.256;2023-03-14T07:22:50;95009.81;;;6.02;53.94
57801;BME280;43627;42.728;23.256;2023-03-14T07:25:17;95012.75;;;6.20;52.45
57801;BME280;43627;42.728;23.256;2023-03-14T07:27:44;95005.53;;;6.55;50.73
57801;BME280;43627;42.728;23.256;2023-03-14T07:30:11;94995.91;;;7.02;50.15
57801;BME280;43627;42.728;23.256;2023-03-14T07:32:39;94991.66;;;7.13;49.73
57801;BME280;43627;42.728;23.256;2023-03-14T07:35:06;94992.41;;;7.14;49.14
57801;BME280;43627;42.728;23.256;2023-03-14T07:37:33;94989.47;;;6.61;50.52
57801;BME280;43627;42.728;23.256;2023-03-14T07:40:00;94992.38;;;6.79;49.77
57801;BME280;43627;42.728;23.256;2023-03-14T07:42:26;94986.78;;;7.65;47.45
57801;BME280;43627;42.728;23.256;2023-03-14T07:44:53;94987.97;;;7.07;48.49
57801;BME280;43627;42.728;23.256;2023-03-14T07:47:20;94985.06;;;7.36;47.07
57801;BME280;43627;42.728;23.256;2023-03-14T07:49:46;94989.94;;;7.63;47.04
57801;BME280;43627;42.728;23.256;2023-03-14T07:52:13;94974.84;;;7.06;47.58
57801;BME280;43627;42.728;23.256;2023-03-14T07:54:40;94991.91;;;6.94;47.87
57801;BME280;43627;42.728;23.256;2023-03-14T07:57:06;94983.19;;;6.51;48.30
57801;BME280;43627;42.728;23.256;2023-03-14T07:59:33;94979.03;;;5.96;49.81
57801;BME280;43627;42.728;23.256;2023-03-14T08:02:00;94980.34;;;5.91;50.49
57801;BME280;43627;42.728;23.256;2023-03-14T08:04:26;94983.28;;;5.97;49.60
57801;BME280;43627;42.728;23.256;2023-03-14T08:06:53;94970.72;;;6.03;50.21
57801;BME280;43627;42.728;23.256;2023-03-14T08:09:20;94972.88;;;5.95;50.30
57801;BME280;43627;42.728;23.256;2023-03-14T08:11:47;94967.25;;;6.15;50.98
57801;BME280;43627;42.728;23.256;2023-03-14T08:14:14;94968.03;;;6.54;50.74
57801;BME280;43627;42.728;23.256;2023-03-14T08:16:40;94972.66;;;6.66;51.03
57801;BME280;43627;42.728;23.256;2023-03-14T08:19:07;94961.66;;;6.95;50.59
57801;BME280;43627;42.728;23.256;2023-03-14T08:21:34;94966.78;;;6.80;50.35
57801;BME280;43627;42.728;23.256;2023-03-14T08:24:00;94970.06;;;7.10;49.00
57801;BME280;43627;42.728;23.256;2023-03-14T08:26:27;94963.41;;;7.24;48.13
57801;BME280;43627;42.728;23.256;2023-03-14T08:28:53;94964.41;;;7.17;47.93
57801;BME280;43627;42.728;23.256;2023-03-14T08:31:20;94953.53;;;6.95;48.93
57801;BME280;43627;42.728;23.256;2023-03-14T08:33:47;94955.16;;;6.93;48.00
57801;BME280;43627;42.728;23.256;2023-03-14T08:36:14;94959.03;;;7.04;47.14
57801;BME280;43627;42.728;23.256;2023-03-14T08:38:41;94946.25;;;7.27;47.76
57801;BME280;43627;42.728;23.256;2023-03-14T08:41:09;94946.91;;;7.31;47.52
57801;BME280;43627;42.728;23.256;2023-03-14T08:43:36;94935.91;;;7.56;46.57
57801;BME280;43627;42.728;23.256;2023-03-14T08:46:03;94929.44;;;7.85;47.19
57801;BME280;43627;42.728;23.256;2023-03-14T08:48:30;94928.25;;;8.17;45.39
57801;BME280;43627;42.728;23.256;2023-03-14T08:51:06;94924.50;;;8.23;44.76
57801;BME280;43627;42.728;23.256;2023-03-14T08:53:33;94918.66;;;8.34;44.42
57801;BME280;43627;42.728;23.256;2023-03-14T08:56:00;94917.84;;;8.55;44.40
57801;BME280;43627;42.728;23.256;2023-03-14T08:58:27;94901.78;;;8.39;42.64
57801;BME280;43627;42.728;23.256;2023-03-14T09:00:53;94904.56;;;8.17;42.29
57801;BME280;43627;42.728;23.256;2023-03-14T09:03:20;94900.81;;;8.33;42.69
57801;BME280;43627;42.728;23.256;2023-03-14T09:05:50;94890.25;;;8.26;42.12
57801;BME280;43627;42.728;23.256;2023-03-14T09:08:18;94894.56;;;8.45;42.72
57801;BME280;43627;42.728;23.256;2023-03-14T09:10:44;94882.34;;;8.50;42.82
57801;BME280;43627;42.728;23.256;2023-03-14T09:13:11;94870.00;;;8.85;41.85
57801;BME280;43627;42.728;23.256;2023-03-14T09:15:38;94884.34;;;8.86;42.20
57801;BME280;43627;42.728;23.256;2023-03-14T09:18:05;94871.34;;;9.08;41.70
57801;BME280;43627;42.728;23.256;2023-03-14T09:20:31;94864.38;;;9.35;41.14
57801;BME280;43627;42.728;23.256;2023-03-14T09:22:58;94863.13;;;9.54;40.35
57801;BME280;43627;42.728;23.256;2023-03-14T09:25:25;94848.91;;;9.68;40.58
57801;BME280;43627;42.728;23.256;2023-03-14T09:27:51;94854.50;;;9.65;39.60
57801;BME280;43627;42.728;23.256;2023-03-14T09:30:18;94848.91;;;9.68;39.94
57801;BME280;43627;42.728;23.256;2023-03-14T09:32:44;94842.31;;;9.84;39.63
57801;BME280;43627;42.728;23.256;2023-03-14T09:35:11;94844.34;;;9.65;39.30
57801;BME280;43627;42.728;23.256;2023-03-14T09:37:38;94835.66;;;9.85;39.02
57801;BME280;43627;42.728;23.256;2023-03-14T09:40:05;94827.34;;;10.22;38.66
57801;BME280;43627;42.728;23.256;2023-03-14T09:42:37;94832.13;;;10.36;37.89
57801;BME280;43627;42.728;23.256;2023-03-14T09:45:16;94818.66;;;10.33;37.43
57801;BME280;43627;42.728;23.256;2023-03-14T09:47:44;94810.09;;;10.49;37.11
57801;BME280;43627;42.728;23.256;2023-03-14T09:50:26;94812.31;;;10.36;37.58
57801;BME280;43627;42.728;23.256;2023-03-14T09:52:59;94806.44;;;10.28;38.14
57801;BME280;43627;42.728;23.256;2023-03-14T09:55:28;94802.00;;;10.78;37.54
57801;BME280;43627;42.728;23.256;2023-03-14T09:57:59;94790.22;;;11.11;36.74
57801;BME280;43627;42.728;23.256;2023-03-14T10:00:28;94785.50;;;11.11;36.60
57801;BME280;43627;42.728;23.256;2023-03-14T10:03:09;94792.34;;;10.53;38.32
57801;BME280;43627;42.728;23.256;2023-03-14T10:05:41;94782.16;;;10.78;36.87
57801;BME280;43627;42.728;23.256;2023-03-14T10:08:12;94772.78;;;11.08;37.18
57801;BME280;43627;42.728;23.256;2023-03-14T10:10:40;94769.69;;;11.30;35.16
57801;BME280;43627;42.728;23.256;2023-03-14T10:13:23;94749.16;;;11.35;34.84
57801;BME280;43627;42.728;23.256;2023-03-14T10:15:55;94752.84;;;11.47;35.19
57801;BME280;43627;42.728;23.256;2023-03-14T10:18:23;94740.19;;;11.64;35.61
57801;BME280;43627;42.728;23.256;2023-03-14T10:21:09;94734.22;;;11.95;35.16
57801;BME280;43627;42.728;23.256;2023-03-14T10:23:43;94740.84;;;12.49;34.16
57801;BME280;43627;42.728;23.256;2023-03-14T10:26:16;94736.28;;;12.41;32.99
57801;BME280;43627;42.728;23.256;2023-03-14T10:28:45;94736.38;;;11.91;32.78
57801;BME280;43627;42.728;23.256;2023-03-14T10:31:13;94713.16;;;12.21;33.46
57801;BME280;43627;42.728;23.256;2023-03-14T10:33:40;94716.88;;;12.18;33.75
57801;BME280;43627;42.728;23.256;2023-03-14T10:36:23;94711.06;;;12.51;36.54
57801;BME280;43627;42.728;23.256;2023-03-14T10:38:58;94703.75;;;12.89;33.57
57801;BME280;43627;42.728;23.256;2023-03-14T10:41:32;94693.09;;;12.45;33.12
57801;BME280;43627;42.728;23.256;2023-03-14T10:44:01;94687.19;;;12.52;33.34
57801;BME280;43627;42.728;23.256;2023-03-14T10:46:31;94675.19;;;12.70;32.31
57801;BME280;43627;42.728;23.256;2023-03-14T10:49:04;94666.22;;;12.69;35.87
57801;BME280;43627;42.728;23.256;2023-03-14T10:51:31;94671.50;;;12.73;32.74
57801;BME280;43627;42.728;23.256;2023-03-14T10:54:14;94664.28;;;12.75;31.90
57801;BME280;43627;42.728;23.256;2023-03-14T10:56:56;94663.94;;;12.62;31.82
57801;BME280;43627;42.728;23.256;2023-03-14T10:59:23;94659.19;;;12.88;31.45
57801;BME280;43627;42.728;23.256;2023-03-14T11:01:55;94651.66;;;13.09;31.97
57801;BME280;43627;42.728;23.256;2023-03-14T11:15:51;94616.00;;;13.30;34.02
57801;BME280;43627;42.728;23.256;2023-03-14T11:29:46;94581.69;;;13.88;32.79
57801;BME280;43627;42.728;23.256;2023-03-14T11:38:07;94553.09;;;14.06;33.48
57801;BME280;43627;42.728;23.256;2023-03-14T11:40:37;94544.41;;;14.30;33.26
57801;BME280;43627;42.728;23.256;2023-03-14T11:45:37;94520.78;;;14.77;33.11
57801;BME280;43627;42.728;23.256;2023-03-14T11:48:28;94532.97;;;15.21;32.53
57801;BME280;43627;42.728;23.256;2023-03-14T11:50:59;94519.03;;;14.80;32.86
57801;BME280;43627;42.728;23.256;2023-03-14T11:53:47;94524.94;;;15.34;32.41
57801;BME280;43627;42.728;23.256;2023-03-14T11:59:23;94513.69;;;15.38;31.30
57801;BME280;43627;42.728;23.256;2023-03-14T12:02:03;94508.16;;;15.49;31.36
57801;BME280;43627;42.728;23.256;2023-03-14T12:04:51;94503.03;;;15.18;31.85
57801;BME280;43627;42.728;23.256;2023-03-14T12:07:23;94491.28;;;15.11;31.88
57801;BME280;43627;42.728;23.256;2023-03-14T12:09:52;94488.00;;;15.35;31.85
57801;BME280;43627;42.728;23.256;2023-03-14T12:12:24;94466.16;;;15.65;32.23
57801;BME280;43627;42.728;23.256;2023-03-14T12:15:03;94477.47;;;15.97;31.70
57801;BME280;43627;42.728;23.256;2023-03-14T12:17:37;94476.97;;;15.99;31.26
57801;BME280;43627;42.728;23.256;2023-03-14T12:22:53;94453.31;;;16.56;31.02
57801;BME280;43627;42.728;23.256;2023-03-14T12:25:24;94460.25;;;16.63;29.76
57801;BME280;43627;42.728;23.256;2023-03-14T12:33:19;94436.63;;;15.71;30.92
57801;BME280;43627;42.728;23.256;2023-03-14T12:35:48;94437.19;;;15.53;31.03
57801;BME280;43627;42.728;23.256;2023-03-14T12:41:21;94416.22;;;14.92;31.41
57801;BME280;43627;42.728;23.256;2023-03-14T12:43:49;94432.19;;;14.99;31.66
57801;BME280;43627;42.728;23.256;2023-03-14T12:46:26;94420.81;;;15.31;30.97
57801;BME280;43627;42.728;23.256;2023-03-14T12:51:39;94403.47;;;15.99;30.58
57801;BME280;43627;42.728;23.256;2023-03-14T12:54:26;94397.50;;;15.54;31.37
57801;BME280;43627;42.728;23.256;2023-03-14T12:57:32;94391.91;;;15.71;31.10
57801;BME280;43627;42.728;23.256;2023-03-14T13:00:02;94387.50;;;15.51;30.76
57801;BME280;43627;42.728;23.256;2023-03-14T13:02:41;94391.34;;;15.84;30.57
57801;BME280;43627;42.728;23.256;2023-03-14T13:05:21;94380.59;;;16.16;30.35
57801;BME280;43627;42.728;23.256;2023-03-14T13:10:25;94370.03;;;16.25;29.65
57801;BME280;43627;42.728;23.256;2023-03-14T13:13:35;94370.06;;;15.90;29.78
57801;BME280;43627;42.728;23.256;2023-03-14T13:15:45;94352.84;;;15.42;29.85
57801;BME280;43627;42.728;23.256;2023-03-14T13:21:11;94357.75;;;15.96;29.72
57801;BME280;43627;42.728;23.256;2023-03-14T13:23:39;94348.84;;;15.85;29.71
57801;BME280;43627;42.728;23.256;2023-03-14T13:26:11;94331.22;;;15.69;29.92
57801;BME280;43627;42.728;23.256;2023-03-14T13:28:39;94334.63;;;15.45;30.69
57801;BME280;43627;42.728;23.256;2023-03-14T13:31:23;94326.03;;;15.95;29.97
57801;BME280;43627;42.728;23.256;2023-03-14T13:33:58;94316.50;;;16.26;29.70
57801;BME280;43627;42.728;23.256;2023-03-14T13:36:25;94320.34;;;16.42;29.45
57801;BME280;43627;42.728;23.256;2023-03-14T13:38:59;94312.09;;;16.42;29.40
57801;BME280;43627;42.728;23.256;2023-03-14T13:41:27;94305.03;;;16.47;29.01
57801;BME280;43627;42.728;23.256;2023-03-14T13:47:00;94295.16;;;16.08;29.02
57801;BME280;43627;42.728;23.256;2023-03-14T13:49:29;94289.63;;;16.14;28.93
57801;BME280;43627;42.728;23.256;2023-03-14T13:51:58;94288.13;;;16.37;29.22
57801;BME280;43627;42.728;23.256;2023-03-14T13:54:26;94285.25;;;16.48;28.83
57801;BME280;43627;42.728;23.256;2023-03-14T13:57:04;94273.56;;;16.18;28.84
57801;BME280;43627;42.728;23.256;2023-03-14T13:59:33;94262.91;;;15.84;29.46
57801;BME280;43627;42.728;23.256;2023-03-14T14:02:04;94258.16;;;15.85;28.89
57801;BME280;43627;42.728;23.256;2023-03-14T14:04:36;94259.56;;;15.61;29.48